DAL1748 KSAN-KLAX
Flight info
| Callsign | DAL1748 |
|---|---|
| Flight time | 0h 37m |
| Altitude | 10000 |
| Route | CWARD2 SLI |
| Aircraft | A20N/M-SDE2E3FGHIRWXY/LB1 |
Departure
| Time | 2026-04-22 18:19 |
|---|---|
| Airport | San Diego International Airport (KSAN) |
Arrival
| Time | 2026-04-22 18:57 |
|---|---|
| Airport | Los Angeles International Airport (KLAX) |
| Time | Latitude | Longitude | Altitude | Speed | Heading |
|---|---|---|---|---|---|
| 2026-04-22 18:02 | 32.73375 | -117.20350 | 24 ft | 0 kts | 269° |
| 2026-04-22 18:09 | 32.73375 | -117.20349 | 24 ft | 2 kts | 269° |
| 2026-04-22 18:09 | 32.73376 | -117.20330 | 28 ft | 2 kts | 269° |
| 2026-04-22 18:10 | 32.73376 | -117.20310 | 26 ft | 2 kts | 269° |
| 2026-04-22 18:10 | 32.73375 | -117.20290 | 28 ft | 2 kts | 300° |
| 2026-04-22 18:10 | 32.73363 | -117.20278 | 27 ft | 2 kts | 337° |
| 2026-04-22 18:10 | 32.73347 | -117.20271 | 27 ft | 2 kts | 344° |
| 2026-04-22 18:11 | 32.73341 | -117.20269 | 25 ft | 0 kts | 344° |
| 2026-04-22 18:13 | 32.73349 | -117.20271 | 27 ft | 0 kts | 344° |
| 2026-04-22 18:13 | 32.73354 | -117.20273 | 29 ft | 4 kts | 345° |
| 2026-04-22 18:14 | 32.73394 | -117.20276 | 24 ft | 14 kts | 7° |
| 2026-04-22 18:14 | 32.73520 | -117.20233 | 27 ft | 12 kts | 25° |
| 2026-04-22 18:14 | 32.73542 | -117.20187 | 26 ft | 0 kts | 81° |
| 2026-04-22 18:14 | 32.73540 | -117.20163 | 26 ft | 0 kts | 109° |
| 2026-04-22 18:15 | 32.73522 | -117.20096 | 27 ft | 17 kts | 105° |
| 2026-04-22 18:15 | 32.73478 | -117.19904 | 27 ft | 30 kts | 105° |
| 2026-04-22 18:15 | 32.73410 | -117.19615 | 26 ft | 43 kts | 107° |
| 2026-04-22 18:15 | 32.73319 | -117.19241 | 24 ft | 50 kts | 106° |
| 2026-04-22 18:16 | 32.73220 | -117.18833 | 26 ft | 52 kts | 105° |
| 2026-04-22 18:16 | 32.73117 | -117.18411 | 24 ft | 52 kts | 105° |
| 2026-04-22 18:16 | 32.73023 | -117.18018 | 21 ft | 46 kts | 107° |
| 2026-04-22 18:16 | 32.72950 | -117.17731 | 19 ft | 36 kts | 111° |
| 2026-04-22 18:17 | 32.72968 | -117.17683 | 21 ft | 0 kts | 284° |
| 2026-04-22 18:18 | 32.72971 | -117.17671 | 20 ft | 9 kts | 64° |
| 2026-04-22 18:18 | 32.73008 | -117.17618 | 22 ft | 1 kts | 23° |
| 2026-04-22 18:18 | 32.73037 | -117.17643 | 24 ft | 9 kts | 290° |
| 2026-04-22 18:18 | 32.73071 | -117.17788 | 22 ft | 51 kts | 285° |
| 2026-04-22 18:19 | 32.73266 | -117.18611 | 28 ft | 149 kts | 286° |
| 2026-04-22 18:19 | 32.73591 | -117.19979 | 532 ft | 181 kts | 286° |
| 2026-04-22 18:19 | 32.74065 | -117.21371 | 1464 ft | 189 kts | 297° |
| 2026-04-22 18:19 | 32.74784 | -117.22779 | 2457 ft | 205 kts | 302° |
| 2026-04-22 18:20 | 32.75600 | -117.24201 | 3668 ft | 210 kts | 303° |
| 2026-04-22 18:20 | 32.76447 | -117.25664 | 4608 ft | 228 kts | 303° |
| 2026-04-22 18:20 | 32.77388 | -117.27329 | 5403 ft | 257 kts | 302° |
| 2026-04-22 18:20 | 32.78415 | -117.29195 | 6178 ft | 278 kts | 302° |
| 2026-04-22 18:21 | 32.79477 | -117.31148 | 6923 ft | 284 kts | 302° |
| 2026-04-22 18:21 | 32.80653 | -117.33051 | 7644 ft | 287 kts | 307° |
| 2026-04-22 18:21 | 32.81890 | -117.34942 | 8392 ft | 296 kts | 306° |
| 2026-04-22 18:21 | 32.83187 | -117.36936 | 9155 ft | 314 kts | 306° |
| 2026-04-22 18:22 | 32.84555 | -117.39047 | 9882 ft | 328 kts | 306° |
| 2026-04-22 18:22 | 32.85957 | -117.41214 | 10161 ft | 331 kts | 306° |
| 2026-04-22 18:22 | 32.87365 | -117.43391 | 10218 ft | 333 kts | 306° |
| 2026-04-22 18:22 | 32.88781 | -117.45582 | 10221 ft | 334 kts | 306° |
| 2026-04-22 18:23 | 32.90253 | -117.47869 | 10217 ft | 369 kts | 306° |
| 2026-04-22 18:23 | 32.91751 | -117.50199 | 10222 ft | 386 kts | 306° |
| 2026-04-22 18:23 | 32.93393 | -117.52746 | 10217 ft | 388 kts | 306° |
| 2026-04-22 18:24 | 32.96681 | -117.57853 | 10214 ft | 388 kts | 306° |
| 2026-04-22 18:24 | 32.98319 | -117.60406 | 10215 ft | 388 kts | 306° |
| 2026-04-22 18:24 | 33.01588 | -117.65509 | 10217 ft | 387 kts | 306° |
| 2026-04-22 18:25 | 33.03201 | -117.68027 | 10208 ft | 387 kts | 306° |
| 2026-04-22 18:25 | 33.04835 | -117.70581 | 10217 ft | 387 kts | 306° |
| 2026-04-22 18:25 | 33.06577 | -117.73025 | 10215 ft | 387 kts | 312° |
| 2026-04-22 18:26 | 33.10631 | -117.77283 | 10219 ft | 389 kts | 317° |
| 2026-04-22 18:26 | 33.12691 | -117.79370 | 10222 ft | 389 kts | 317° |
| 2026-04-22 18:26 | 33.14082 | -117.80785 | 10218 ft | 388 kts | 317° |
| 2026-04-22 18:26 | 33.16106 | -117.82847 | 10221 ft | 388 kts | 317° |
| 2026-04-22 18:27 | 33.18271 | -117.84781 | 10218 ft | 390 kts | 326° |
| 2026-04-22 18:27 | 33.20710 | -117.86222 | 10220 ft | 394 kts | 338° |
| 2026-04-22 18:27 | 33.50281 | -117.98123 | 8450 ft | 13343 kts | 341° |
| 2026-04-22 18:27 | 33.73977 | -118.07760 | 7389 ft | 387 kts | 340° |
| 2026-04-22 18:28 | 33.76455 | -118.08674 | 7255 ft | 356 kts | 346° |
| 2026-04-22 18:28 | 33.78810 | -118.09072 | 7189 ft | 329 kts | 353° |
| 2026-04-22 18:28 | 33.81059 | -118.08748 | 7184 ft | 332 kts | 15° |
| 2026-04-22 18:28 | 33.83079 | -118.07385 | 7184 ft | 337 kts | 37° |
| 2026-04-22 18:29 | 33.84806 | -118.05475 | 7197 ft | 338 kts | 40° |
| 2026-04-22 18:29 | 33.86339 | -118.03330 | 7046 ft | 339 kts | 57° |
| 2026-04-22 18:29 | 33.87145 | -118.00695 | 6607 ft | 334 kts | 79° |
| 2026-04-22 18:29 | 33.87449 | -117.97957 | 6099 ft | 327 kts | 82° |
| 2026-04-22 18:30 | 33.87747 | -117.95276 | 5591 ft | 319 kts | 81° |
| 2026-04-22 18:30 | 33.88360 | -117.90099 | 4578 ft | 307 kts | 81° |
| 2026-04-22 18:30 | 33.88676 | -117.87579 | 4076 ft | 301 kts | 81° |
| 2026-04-22 18:31 | 33.88988 | -117.85145 | 3856 ft | 286 kts | 81° |
| 2026-04-22 18:31 | 33.89286 | -117.82860 | 3795 ft | 267 kts | 81° |
| 2026-04-22 18:31 | 33.89566 | -117.80728 | 3798 ft | 249 kts | 81° |
| 2026-04-22 18:31 | 33.89836 | -117.78740 | 3810 ft | 233 kts | 78° |
| 2026-04-22 18:32 | 33.90541 | -117.77075 | 3812 ft | 219 kts | 45° |
| 2026-04-22 18:32 | 33.91810 | -117.76219 | 3815 ft | 210 kts | 9° |
| 2026-04-22 18:32 | 33.93383 | -117.76377 | 3822 ft | 253 kts | 338° |
| 2026-04-22 18:32 | 33.94718 | -117.77412 | 3819 ft | 260 kts | 312° |
| 2026-04-22 18:33 | 33.95601 | -117.79282 | 3820 ft | 259 kts | 283° |
| 2026-04-22 18:33 | 33.95655 | -117.81437 | 3818 ft | 259 kts | 261° |
| 2026-04-22 18:33 | 33.95342 | -117.83572 | 3814 ft | 259 kts | 259° |
| 2026-04-22 18:33 | 33.95086 | -117.85717 | 3796 ft | 258 kts | 263° |
| 2026-04-22 18:34 | 33.94974 | -117.87876 | 3801 ft | 259 kts | 268° |
| 2026-04-22 18:34 | 33.94974 | -117.90050 | 3801 ft | 258 kts | 270° |
| 2026-04-22 18:34 | 33.95035 | -117.92213 | 3803 ft | 257 kts | 272° |
| 2026-04-22 18:34 | 33.95119 | -117.94306 | 3801 ft | 244 kts | 272° |
| 2026-04-22 18:35 | 33.95204 | -117.96276 | 3799 ft | 229 kts | 272° |
| 2026-04-22 18:35 | 33.95284 | -117.98137 | 3799 ft | 215 kts | 272° |
| 2026-04-22 18:35 | 33.95356 | -117.99888 | 3800 ft | 202 kts | 272° |
| 2026-04-22 18:35 | 33.95420 | -118.01492 | 3802 ft | 190 kts | 272° |
| 2026-04-22 18:36 | 33.95482 | -118.03133 | 3797 ft | 195 kts | 272° |
| 2026-04-22 18:36 | 33.95543 | -118.04765 | 3799 ft | 195 kts | 272° |
| 2026-04-22 18:36 | 33.95606 | -118.06403 | 3801 ft | 195 kts | 272° |
| 2026-04-22 18:36 | 33.95668 | -118.08035 | 3803 ft | 196 kts | 272° |
| 2026-04-22 18:37 | 33.95730 | -118.09677 | 3800 ft | 196 kts | 271° |
| 2026-04-22 18:37 | 33.95790 | -118.11309 | 3799 ft | 196 kts | 272° |
| 2026-04-22 18:37 | 33.95879 | -118.12933 | 3806 ft | 187 kts | 276° |
| 2026-04-22 18:37 | 33.96030 | -118.14463 | 3807 ft | 185 kts | 273° |
| 2026-04-22 18:38 | 33.96020 | -118.15994 | 3750 ft | 186 kts | 265° |
| 2026-04-22 18:38 | 33.95882 | -118.17524 | 3556 ft | 186 kts | 262° |
| 2026-04-22 18:38 | 33.95712 | -118.19070 | 3302 ft | 184 kts | 262° |
| 2026-04-22 18:39 | 33.95397 | -118.22118 | 2812 ft | 183 kts | 262° |
| 2026-04-22 18:39 | 33.95240 | -118.23636 | 2565 ft | 182 kts | 262° |
| 2026-04-22 18:39 | 33.95085 | -118.25132 | 2321 ft | 178 kts | 262° |
| 2026-04-22 18:39 | 33.94931 | -118.26627 | 2082 ft | 180 kts | 262° |
| 2026-04-22 18:40 | 33.94785 | -118.28045 | 1847 ft | 164 kts | 262° |
| 2026-04-22 18:40 | 33.94646 | -118.29394 | 1634 ft | 161 kts | 262° |
| 2026-04-22 18:40 | 33.94506 | -118.30748 | 1409 ft | 163 kts | 262° |
| 2026-04-22 18:40 | 33.94441 | -118.31380 | 1303 ft | 160 kts | 262° |
| 2026-04-22 18:42 | 33.94330 | -118.32469 | 1120 ft | 161 kts | 262° |
| 2026-04-22 18:42 | 33.94193 | -118.33801 | 885 ft | 161 kts | 261° |
| 2026-04-22 18:43 | 33.94055 | -118.35146 | 657 ft | 162 kts | 261° |
| 2026-04-22 18:43 | 33.93935 | -118.36371 | 433 ft | 158 kts | 262° |
| 2026-04-22 18:43 | 33.93804 | -118.37692 | 268 ft | 158 kts | 261° |
| 2026-04-22 18:43 | 33.93660 | -118.39024 | 307 ft | 173 kts | 263° |
| 2026-04-22 18:44 | 33.93504 | -118.40584 | 625 ft | 198 kts | 262° |
| 2026-04-22 18:44 | 33.93341 | -118.42242 | 829 ft | 197 kts | 262° |
| 2026-04-22 18:44 | 33.93190 | -118.43863 | 1260 ft | 195 kts | 262° |
| 2026-04-22 18:44 | 33.93035 | -118.45516 | 1772 ft | 199 kts | 262° |
| 2026-04-22 18:45 | 33.92872 | -118.47200 | 2481 ft | 208 kts | 262° |
| 2026-04-22 18:45 | 33.92394 | -118.48798 | 2872 ft | 203 kts | 232° |
| 2026-04-22 18:45 | 33.91260 | -118.49780 | 2984 ft | 206 kts | 198° |
| 2026-04-22 18:45 | 33.89840 | -118.49787 | 2992 ft | 208 kts | 162° |
| 2026-04-22 18:46 | 33.88672 | -118.48785 | 2996 ft | 212 kts | 126° |
| 2026-04-22 18:46 | 33.88143 | -118.47142 | 2993 ft | 213 kts | 102° |
| 2026-04-22 18:46 | 33.87853 | -118.45392 | 2993 ft | 212 kts | 101° |
| 2026-04-22 18:46 | 33.87569 | -118.43652 | 2992 ft | 212 kts | 101° |
| 2026-04-22 18:47 | 33.87286 | -118.41908 | 2983 ft | 212 kts | 101° |
| 2026-04-22 18:47 | 33.87002 | -118.40159 | 2993 ft | 213 kts | 101° |
| 2026-04-22 18:47 | 33.86722 | -118.38416 | 3001 ft | 212 kts | 101° |
| 2026-04-22 18:47 | 33.86449 | -118.36701 | 2999 ft | 212 kts | 101° |
| 2026-04-22 18:48 | 33.86217 | -118.34953 | 2996 ft | 212 kts | 91° |
| 2026-04-22 18:48 | 33.86339 | -118.33177 | 3002 ft | 213 kts | 82° |
| 2026-04-22 18:48 | 33.86563 | -118.31419 | 2998 ft | 212 kts | 81° |
| 2026-04-22 18:48 | 33.86789 | -118.29663 | 3002 ft | 212 kts | 81° |
| 2026-04-22 18:49 | 33.87015 | -118.27917 | 3190 ft | 211 kts | 81° |
| 2026-04-22 18:49 | 33.87243 | -118.26155 | 3513 ft | 214 kts | 81° |
| 2026-04-22 18:49 | 33.87469 | -118.24384 | 3595 ft | 215 kts | 81° |
| 2026-04-22 18:49 | 33.87695 | -118.22605 | 3574 ft | 214 kts | 81° |
| 2026-04-22 18:50 | 33.87920 | -118.20840 | 3577 ft | 214 kts | 81° |
| 2026-04-22 18:50 | 33.88147 | -118.19067 | 3577 ft | 214 kts | 81° |
| 2026-04-22 18:50 | 33.88377 | -118.17296 | 3577 ft | 214 kts | 81° |
| 2026-04-22 18:50 | 33.88607 | -118.15523 | 3577 ft | 214 kts | 82° |
| 2026-04-22 18:51 | 33.88831 | -118.13750 | 3583 ft | 214 kts | 82° |
| 2026-04-22 18:51 | 33.89247 | -118.12049 | 3582 ft | 214 kts | 57° |
| 2026-04-22 18:51 | 33.90345 | -118.10884 | 3578 ft | 214 kts | 22° |
| 2026-04-22 18:51 | 33.91797 | -118.10625 | 3582 ft | 214 kts | 356° |
| 2026-04-22 18:52 | 33.93200 | -118.11115 | 3574 ft | 206 kts | 328° |
| 2026-04-22 18:52 | 33.94335 | -118.12217 | 3586 ft | 230 kts | 317° |
| 2026-04-22 18:52 | 33.95488 | -118.13652 | 3575 ft | 243 kts | 300° |
| 2026-04-22 18:52 | 33.95969 | -118.15463 | 3479 ft | 236 kts | 273° |
| 2026-04-22 18:53 | 33.95910 | -118.17447 | 3268 ft | 234 kts | 262° |
| 2026-04-22 18:53 | 33.95676 | -118.19401 | 3148 ft | 233 kts | 262° |
| 2026-04-22 18:53 | 33.95483 | -118.21297 | 2903 ft | 224 kts | 261° |
| 2026-04-22 18:53 | 33.95291 | -118.23134 | 2626 ft | 218 kts | 262° |
| 2026-04-22 18:54 | 33.95106 | -118.24924 | 2342 ft | 213 kts | 262° |
| 2026-04-22 18:54 | 33.94927 | -118.26663 | 2063 ft | 205 kts | 262° |
| 2026-04-22 18:54 | 33.94754 | -118.28339 | 1799 ft | 196 kts | 262° |
| 2026-04-22 18:54 | 33.94599 | -118.29854 | 1569 ft | 166 kts | 262° |
| 2026-04-22 18:55 | 33.94458 | -118.31218 | 1340 ft | 179 kts | 262° |
| 2026-04-22 18:55 | 33.94308 | -118.32690 | 1097 ft | 172 kts | 261° |
| 2026-04-22 18:55 | 33.94161 | -118.34120 | 845 ft | 173 kts | 261° |
| 2026-04-22 18:55 | 33.94026 | -118.35435 | 609 ft | 171 kts | 261° |
| 2026-04-22 18:56 | 33.93884 | -118.36819 | 380 ft | 167 kts | 261° |
| 2026-04-22 18:56 | 33.93749 | -118.38181 | 213 ft | 154 kts | 262° |
| 2026-04-22 18:56 | 33.93629 | -118.39333 | 126 ft | 121 kts | 263° |
| 2026-04-22 18:56 | 33.93553 | -118.40083 | 126 ft | 57 kts | 263° |
| 2026-04-22 18:57 | 33.93535 | -118.40368 | 123 ft | 20 kts | 273° |
| 2026-04-22 18:57 | 33.93609 | -118.40810 | 126 ft | 0 kts | 285° |
| 2026-04-22 18:57 | 33.93770 | -118.41026 | 126 ft | 0 kts | 265° |
| 2026-04-22 18:57 | 33.93758 | -118.41213 | 126 ft | 0 kts | 260° |
| 2026-04-22 18:58 | 33.94031 | -118.41740 | 126 ft | 0 kts | 2° |
| 2026-04-22 18:58 | 33.94646 | -118.41804 | 126 ft | 0 kts | 55° |
| 2026-04-22 18:58 | 33.94670 | -118.40326 | 125 ft | 0 kts | 262° |